createdAt,value
2016-10-07T14:26:54.082Z,4408
2016-10-07T14:27:56.050Z,4284
2016-10-07T14:28:55.212Z,4184
2016-10-07T14:29:54.801Z,4092
2016-10-07T14:30:55.670Z,4108
2016-10-07T14:31:55.444Z,4264
2016-10-07T14:32:54.909Z,4496
2016-10-07T14:33:55.222Z,4156
2016-10-07T14:34:55.597Z,3976
2016-10-07T14:35:55.755Z,3812
2016-10-07T14:36:55.110Z,3688
2016-10-07T14:37:55.160Z,3580
2016-10-07T14:38:55.788Z,3552
2016-10-07T14:39:54.757Z,3568
2016-10-07T14:40:55.471Z,3608
2016-10-07T14:41:56.447Z,3704
2016-10-07T14:42:55.501Z,3776
2016-10-07T14:43:55.471Z,3804
2016-10-07T14:44:55.022Z,3804
2016-10-07T14:45:55.758Z,3776
2016-10-07T14:46:56.254Z,3736
2016-10-07T14:47:55.204Z,3688
2016-10-07T14:48:55.805Z,3652
2016-10-07T14:49:56.391Z,3648
2016-10-07T14:50:56.167Z,3680
2016-10-07T14:51:56.139Z,3792
2016-10-07T14:52:56.595Z,4760
2016-10-07T14:53:56.561Z,4080
2016-10-07T14:54:56.133Z,3908
2016-10-07T14:55:56.013Z,3924
2016-10-07T14:56:56.405Z,5240
2016-10-07T14:57:56.954Z,5040
2016-10-07T14:58:56.334Z,4476
2016-10-07T14:59:57.394Z,4568
2016-10-07T15:00:56.609Z,3976
2016-10-07T15:01:56.812Z,3988
2016-10-07T15:02:56.755Z,3880
2016-10-07T15:03:57.273Z,3812
2016-10-07T15:04:56.113Z,3784
2016-10-07T15:05:56.715Z,3780
2016-10-07T15:06:56.338Z,3800
2016-10-07T15:07:56.439Z,3784
2016-10-07T15:08:56.900Z,3764
2016-10-07T15:09:56.543Z,3732
2016-10-07T15:10:57.479Z,3728
2016-10-07T15:11:56.841Z,3728
2016-10-07T15:12:57.619Z,3788
2016-10-07T15:13:58.168Z,3884
2016-10-07T15:14:57.165Z,3976
2016-10-07T15:15:57.281Z,4048
2016-10-07T15:16:57.399Z,4116
2016-10-07T15:17:57.335Z,4212
2016-10-07T15:18:58.017Z,4284
2016-10-07T15:19:57.440Z,4380
2016-10-07T15:20:58.531Z,4480
2016-10-07T15:21:57.700Z,4540
2016-10-07T15:22:58.191Z,4616
2016-10-07T15:23:57.664Z,4680
2016-10-07T15:24:58.453Z,4720
2016-10-07T15:25:58.375Z,4808
2016-10-07T15:26:57.876Z,4852
2016-10-07T15:27:58.398Z,5328
2016-10-07T15:28:57.928Z,6436
2016-10-07T15:29:58.565Z,6660
2016-10-07T15:30:58.019Z,5500
2016-10-07T15:31:59.156Z,5412
2016-10-07T15:32:58.713Z,6668
2016-10-07T15:33:58.216Z,6832
2016-10-07T15:34:58.780Z,5676
2016-10-07T15:35:58.289Z,5868
2016-10-07T15:36:58.411Z,5496
2016-10-07T15:37:58.008Z,5264
2016-10-07T15:38:58.493Z,5224
2016-10-07T15:39:58.712Z,5160
2016-10-07T15:40:58.055Z,5028
2016-10-07T15:41:59.132Z,4884
2016-10-07T15:42:59.830Z,4736
2016-10-07T15:43:59.763Z,4616
2016-10-07T15:44:58.757Z,4560
2016-10-07T15:45:58.321Z,4528
2016-10-07T15:46:58.919Z,4772
2016-10-07T15:47:59.087Z,5676
2016-10-07T15:48:59.083Z,6024
2016-10-07T15:49:58.512Z,5768
2016-10-07T15:50:59.652Z,4532
2016-10-07T15:51:59.684Z,4500
2016-10-07T15:52:59.311Z,4452
2016-10-07T15:53:59.287Z,4388
2016-10-07T15:54:59.359Z,4348
2016-10-07T15:55:58.945Z,4324
2016-10-07T15:56:59.503Z,4296
2016-10-07T15:57:59.636Z,4264
2016-10-07T15:58:59.564Z,4260
2016-10-07T16:00:00.692Z,4304
2016-10-07T16:00:59.635Z,4396
2016-10-07T16:01:59.231Z,4476
2016-10-07T16:02:59.838Z,4520
2016-10-07T16:03:59.597Z,4556
2016-10-07T16:05:00.077Z,4584
2016-10-07T16:05:59.433Z,4568
2016-10-07T16:07:00.762Z,4604
2016-10-07T16:07:59.501Z,4628
2016-10-07T16:08:59.679Z,4700
2016-10-07T16:09:59.608Z,4812
2016-10-07T16:10:59.642Z,4888
2016-10-07T16:11:59.690Z,5032
2016-10-07T16:12:59.786Z,5032
2016-10-07T16:13:59.919Z,5688
2016-10-07T16:14:59.895Z,5488
2016-10-07T16:15:59.933Z,5124
2016-10-07T16:16:59.986Z,4964
2016-10-07T16:18:00.043Z,4900
2016-10-07T16:19:01.283Z,4932
2016-10-07T16:20:00.665Z,5068
2016-10-07T16:21:00.230Z,5364
2016-10-07T16:22:00.825Z,6348
2016-10-07T16:23:00.306Z,6456
2016-10-07T16:24:01.758Z,5732
2016-10-07T16:25:00.434Z,5524
2016-10-07T16:26:00.472Z,5964
2016-10-07T16:27:00.526Z,5216
2016-10-07T16:28:00.602Z,5844
2016-10-07T16:29:00.756Z,6488
2016-10-07T16:30:01.763Z,5636
2016-10-07T16:31:01.686Z,6228
2016-10-07T16:32:00.808Z,6384
2016-10-07T16:33:00.902Z,5632
2016-10-07T16:34:00.939Z,5236
2016-10-07T16:35:01.478Z,5320
2016-10-07T16:36:02.607Z,5212
2016-10-07T16:37:01.608Z,5180
2016-10-07T16:38:02.228Z,5172
2016-10-07T16:39:02.208Z,5016
2016-10-07T16:40:01.254Z,4896
2016-10-07T16:41:01.814Z,4800
2016-10-07T16:42:01.311Z,4864
2016-10-07T16:43:01.915Z,4960
2016-10-07T16:44:01.416Z,5160
2016-10-07T16:45:06.540Z,5144
2016-10-07T16:46:01.583Z,6508
2016-10-07T16:47:02.147Z,6456
2016-10-07T16:48:01.638Z,6508
2016-10-07T16:49:01.795Z,6528
2016-10-07T16:50:02.897Z,6640
2016-10-07T16:51:02.342Z,6696
2016-10-07T16:52:01.910Z,6708
2016-10-07T16:53:02.514Z,6652
2016-10-07T16:54:02.756Z,6636
2016-10-07T16:55:02.109Z,5296
2016-10-07T16:56:03.174Z,5836
2016-10-07T16:57:02.163Z,6456
2016-10-07T16:58:02.213Z,6476
2016-10-07T16:59:02.799Z,6428
2016-10-07T17:00:02.933Z,5488
2016-10-07T17:01:02.379Z,5008
2016-10-07T17:02:02.968Z,4900
2016-10-07T17:03:02.500Z,4912
2016-10-07T17:04:02.573Z,4976
2016-10-07T17:05:03.126Z,5004
2016-10-07T17:06:03.178Z,5116
2016-10-07T17:07:03.228Z,5764
2016-10-07T17:08:04.350Z,5928
2016-10-07T17:09:03.401Z,5316
2016-10-07T17:10:02.864Z,5516
2016-10-07T17:11:03.037Z,5392
2016-10-07T17:12:03.511Z,5348
2016-10-07T17:13:03.565Z,5316
2016-10-07T17:14:03.599Z,5256
2016-10-07T17:15:04.219Z,5228
2016-10-07T17:16:03.285Z,5260
2016-10-07T17:17:03.228Z,5936
2016-10-07T17:18:03.770Z,6596
2016-10-07T17:19:03.907Z,6732
2016-10-07T17:20:03.384Z,6828
2016-10-07T17:21:03.782Z,6896
2016-10-07T17:22:04.048Z,6936
2016-10-07T17:23:04.644Z,5912
2016-10-07T17:24:03.642Z,6144
2016-10-07T17:25:03.707Z,6564
2016-10-07T17:26:04.900Z,5452
2016-10-07T17:27:04.300Z,5280
2016-10-07T17:28:04.365Z,5204
2016-10-07T17:29:04.392Z,5204
2016-10-07T17:30:04.512Z,5124
2016-10-07T17:31:04.125Z,5108
2016-10-07T17:32:04.617Z,5056
2016-10-07T17:33:05.175Z,5212
2016-10-07T17:34:04.171Z,5416
2016-10-07T17:35:05.230Z,5864
2016-10-07T17:36:05.413Z,6460
2016-10-07T17:37:04.338Z,6400
2016-10-07T17:38:04.915Z,6264
2016-10-07T17:39:04.947Z,6172
2016-10-07T17:40:05.580Z,6140
2016-10-07T17:41:05.677Z,6172
2016-10-07T17:42:05.202Z,6084
2016-10-07T17:43:05.191Z,6008
2016-10-07T17:44:04.719Z,5440
2016-10-07T17:45:05.277Z,5764
2016-10-07T17:46:05.343Z,5284
2016-10-07T17:47:04.936Z,5556
2016-10-07T17:48:05.459Z,5552
2016-10-07T17:49:05.003Z,5576
2016-10-07T17:50:06.099Z,5604
2016-10-07T17:51:05.115Z,5564
2016-10-07T17:52:05.709Z,4320
2016-10-07T17:53:05.222Z,4304
2016-10-07T17:54:05.280Z,4776
2016-10-07T17:55:06.390Z,4828
2016-10-07T17:56:05.955Z,4236
2016-10-07T17:57:06.082Z,4224
2016-10-07T17:58:05.988Z,4264
2016-10-07T17:59:06.026Z,4236
2016-10-07T18:00:05.577Z,4280
2016-10-07T18:01:05.674Z,4400
2016-10-07T18:02:06.820Z,4472
2016-10-07T18:03:06.236Z,4636
2016-10-07T18:04:05.800Z,5008
2016-10-07T18:05:06.398Z,5196
2016-10-07T18:06:05.884Z,4960
2016-10-07T18:07:09.577Z,5092
2016-10-07T18:08:06.039Z,5100
2016-10-07T18:09:06.050Z,5220
2016-10-07T18:10:06.095Z,5104
2016-10-07T18:11:06.184Z,5000
2016-10-07T18:12:06.807Z,5020
2016-10-07T18:13:06.767Z,5096
2016-10-07T18:14:07.372Z,5108
2016-10-07T18:15:07.370Z,5216
2016-10-07T18:16:06.924Z,5160
2016-10-07T18:17:07.038Z,5132
2016-10-07T18:18:07.527Z,5280
2016-10-07T18:19:06.552Z,5236
2016-10-07T18:20:07.679Z,5204
2016-10-07T18:21:07.756Z,5132
2016-10-07T18:22:07.790Z,5016
2016-10-07T18:23:06.781Z,4964
2016-10-07T18:24:07.339Z,4948
2016-10-07T18:25:07.393Z,4964
2016-10-07T18:26:07.959Z,4948
2016-10-07T18:27:08.006Z,4972
2016-10-07T18:28:06.994Z,4912
2016-10-07T18:29:07.609Z,4772
2016-10-07T18:30:07.132Z,4668
2016-10-07T18:31:07.729Z,4664
2016-10-07T18:32:07.265Z,4656
2016-10-07T18:33:07.299Z,4736
2016-10-07T18:34:07.877Z,4760
2016-10-07T18:35:07.940Z,4608
2016-10-07T18:36:08.270Z,4476
2016-10-07T18:37:07.546Z,4376
2016-10-07T18:38:07.659Z,4212
2016-10-07T18:39:07.629Z,4076
2016-10-07T18:40:08.237Z,4076
2016-10-07T18:41:07.794Z,4008
2016-10-07T18:42:09.563Z,3952
2016-10-07T18:43:08.965Z,3924
2016-10-07T18:44:08.966Z,3940
2016-10-07T18:45:09.064Z,3992
2016-10-07T18:46:08.006Z,4016
2016-10-07T18:47:08.084Z,4136
2016-10-07T18:48:09.167Z,4220
2016-10-07T18:49:08.728Z,4240
2016-10-07T18:50:08.797Z,4268
2016-10-07T18:51:08.925Z,4320
2016-10-07T18:52:09.450Z,4316
2016-10-07T18:53:08.916Z,4360
2016-10-07T18:54:09.557Z,4344
2016-10-07T18:55:09.051Z,4224
2016-10-07T18:56:09.119Z,4136
2016-10-07T18:57:08.676Z,4044
2016-10-07T18:58:09.224Z,3892
2016-10-07T18:59:08.754Z,3792
2016-10-07T19:00:09.851Z,3688
2016-10-07T19:01:09.456Z,3684
2016-10-07T19:02:08.905Z,3628
2016-10-07T19:03:09.491Z,3644
2016-10-07T19:04:10.052Z,3608
2016-10-07T19:05:09.059Z,3564
2016-10-07T19:06:09.692Z,3552
2016-10-07T19:07:10.171Z,3448
2016-10-07T19:08:09.261Z,3436
2016-10-07T19:09:10.338Z,3416
2016-10-07T19:10:10.411Z,3412
2016-10-07T19:11:09.403Z,3368
2016-10-07T19:12:09.462Z,3344
2016-10-07T19:13:10.069Z,3324
2016-10-07T19:14:10.083Z,3284
2016-10-07T19:15:10.147Z,3268
2016-10-07T19:16:10.173Z,3224
2016-10-07T19:17:09.739Z,3208
2016-10-07T19:18:09.782Z,3200
2016-10-07T19:19:10.895Z,3164
2016-10-07T19:20:09.861Z,3164
2016-10-07T19:21:11.607Z,3116
2016-10-07T19:22:09.941Z,3108
2016-10-07T19:23:11.048Z,3116
2016-10-07T19:24:10.055Z,3108
2016-10-07T19:25:11.417Z,3072
2016-10-07T19:26:10.193Z,3044
2016-10-07T19:27:11.302Z,3064
2016-10-07T19:28:11.359Z,3032
2016-10-07T19:29:10.367Z,3048
2016-10-07T19:30:10.908Z,3052
2016-10-07T19:31:10.469Z,3084
2016-10-07T19:32:10.553Z,3064
2016-10-07T19:33:10.551Z,3024
2016-10-07T19:34:11.377Z,2968
2016-10-07T19:35:11.219Z,2924
2016-10-07T19:36:10.706Z,2908
2016-10-07T19:37:10.816Z,2868
2016-10-07T19:38:10.839Z,2872
2016-10-07T19:39:10.909Z,2832
2016-10-07T19:40:11.833Z,2840
2016-10-07T19:41:12.054Z,2820
2016-10-07T19:42:11.547Z,2816
2016-10-07T19:43:12.187Z,2772
2016-10-07T19:44:11.154Z,2732
2016-10-07T19:45:11.733Z,2700
2016-10-07T19:46:11.266Z,2656
2016-10-07T19:47:11.878Z,2620
2016-10-07T19:48:12.374Z,2624
2016-10-07T19:49:12.474Z,2616
2016-10-07T19:50:11.517Z,2572
2016-10-07T19:51:11.551Z,2536
2016-10-07T19:52:12.079Z,2524
2016-10-07T19:53:11.596Z,2464
2016-10-07T19:54:11.678Z,2440
2016-10-07T19:55:12.805Z,2376
2016-10-07T19:56:12.317Z,2328
2016-10-07T19:57:11.814Z,2308
2016-10-07T19:58:11.871Z,2288
2016-10-07T19:59:11.899Z,2272
2016-10-07T20:00:12.516Z,2244
2016-10-07T20:01:13.149Z,2204
2016-10-07T20:02:12.105Z,2184
2016-10-07T20:03:12.657Z,2164
2016-10-07T20:04:13.344Z,2132
2016-10-07T20:05:12.223Z,2108
2016-10-07T20:06:13.383Z,2076
2016-10-07T20:07:12.853Z,2060
2016-10-07T20:08:12.402Z,2016
2016-10-07T20:09:12.450Z,1980
2016-10-07T20:10:13.208Z,1924
2016-10-07T20:11:12.549Z,1872
2016-10-07T20:12:12.606Z,1796
2016-10-07T20:13:13.156Z,1724
2016-10-07T20:14:12.720Z,1684
2016-10-07T20:15:12.817Z,1664
2016-10-07T20:16:13.370Z,1644
2016-10-07T20:17:13.454Z,1620
2016-10-07T20:18:13.481Z,1580
2016-10-07T20:19:13.509Z,1528
2016-10-07T20:20:13.043Z,1320
2016-10-07T20:21:13.147Z,1300
2016-10-07T20:22:13.157Z,1280
2016-10-07T20:23:13.236Z,1288
2016-10-07T20:24:13.240Z,1240
2016-10-07T20:25:13.822Z,1192
2016-10-07T20:26:13.379Z,1156
2016-10-07T20:27:13.958Z,1192
2016-10-07T20:28:15.001Z,1220
2016-10-07T20:29:13.526Z,1108
2016-10-07T20:30:13.548Z,1072
2016-10-07T20:31:14.672Z,1032
2016-10-07T20:32:14.736Z,988
2016-10-07T20:33:13.761Z,948
2016-10-07T20:34:14.822Z,896
2016-10-07T20:35:13.822Z,840
2016-10-07T20:36:13.893Z,784
2016-10-07T20:37:14.981Z,736
2016-10-07T20:38:14.548Z,692
2016-10-07T20:39:14.560Z,660
2016-10-07T20:40:14.110Z,636
2016-10-07T20:41:14.149Z,600
2016-10-07T20:42:14.169Z,568
2016-10-07T20:43:15.519Z,544
2016-10-07T20:44:14.296Z,528
2016-10-07T20:45:14.832Z,500
2016-10-07T20:46:14.396Z,460
2016-10-07T20:47:14.967Z,412
2016-10-07T20:48:15.034Z,372
2016-10-07T20:49:15.070Z,348
2016-10-07T20:50:15.096Z,328
2016-10-07T20:51:14.682Z,308
2016-10-07T20:52:15.224Z,300
2016-10-07T20:53:14.758Z,288
2016-10-07T20:54:15.316Z,280
2016-10-07T20:55:15.422Z,272
2016-10-07T20:56:16.164Z,260
2016-10-07T20:57:15.557Z,252
2016-10-07T20:58:15.545Z,252
2016-10-07T20:59:16.824Z,244
2016-10-07T21:00:15.112Z,244
2016-10-07T21:01:15.766Z,228
2016-10-07T21:02:15.240Z,212
2016-10-07T21:03:15.776Z,196
2016-10-07T21:04:15.349Z,184
2016-10-07T21:05:15.918Z,168
2016-10-07T21:06:15.993Z,152
2016-10-07T21:07:15.615Z,136
2016-10-07T21:08:15.588Z,120
2016-10-07T21:09:16.389Z,100
2016-10-07T21:10:15.666Z,88
2016-10-07T21:11:16.269Z,72
2016-10-07T21:12:16.255Z,56
2016-10-07T21:13:16.379Z,48
2016-10-07T21:14:16.581Z,40
2016-10-07T21:15:15.893Z,28
2016-10-07T21:16:16.645Z,24
2016-10-07T21:17:16.001Z,20
2016-10-07T21:18:16.037Z,16
2016-10-07T21:19:16.144Z,12
2016-10-07T21:20:16.665Z,8
2016-10-07T21:21:16.747Z,8
2016-10-07T21:22:16.779Z,8
2016-10-07T21:23:17.624Z,8
2016-10-07T21:24:16.918Z,4
2016-10-07T21:25:16.956Z,4
2016-10-07T21:26:17.505Z,0
2016-10-07T21:27:17.048Z,4
2016-10-07T21:28:16.560Z,4
2016-10-07T21:29:16.662Z,4
2016-10-07T21:30:17.755Z,0
2016-10-07T21:31:17.455Z,0
2016-10-07T21:32:17.304Z,0
2016-10-07T21:33:16.823Z,0
2016-10-07T21:34:16.905Z,0
2016-10-07T21:35:16.909Z,0
2016-10-07T21:36:17.009Z,0
2016-10-07T21:37:17.027Z,0
2016-10-07T21:38:17.069Z,0
2016-10-07T21:39:17.626Z,0
2016-10-07T21:40:17.486Z,0
2016-10-07T21:41:17.246Z,0
2016-10-07T21:42:17.275Z,0
2016-10-07T21:43:17.343Z,0
2016-10-07T21:44:17.888Z,0
2016-10-07T21:45:17.467Z,0
2016-10-07T21:46:18.002Z,0
2016-10-07T21:47:17.524Z,0
2016-10-07T21:48:18.143Z,0
2016-10-07T21:49:18.161Z,0
2016-10-07T21:50:17.687Z,0
2016-10-07T21:51:18.274Z,0
2016-10-07T21:52:17.823Z,0
2016-10-07T21:53:17.886Z,0
2016-10-07T21:54:18.964Z,0
2016-10-07T21:55:17.983Z,0
2016-10-07T21:56:17.995Z,0
2016-10-07T21:57:19.097Z,0
2016-10-07T21:58:18.106Z,0
2016-10-07T21:59:18.146Z,0
2016-10-07T22:00:19.991Z,0
2016-10-07T22:01:19.344Z,0
2016-10-07T22:02:18.316Z,0
2016-10-07T22:03:18.401Z,0
2016-10-07T22:04:18.498Z,0
2016-10-07T22:05:18.984Z,0
2016-10-07T22:06:19.585Z,0
2016-10-07T22:07:19.557Z,0
2016-10-07T22:08:19.148Z,0
2016-10-07T22:09:19.228Z,0
2016-10-07T22:10:18.724Z,0
2016-10-07T22:11:19.319Z,0
2016-10-07T22:12:18.831Z,0
2016-10-07T22:13:18.867Z,0
2016-10-07T22:14:18.955Z,0
2016-10-07T22:15:18.988Z,0
2016-10-07T22:16:19.037Z,0
2016-10-07T22:17:19.648Z,0
2016-10-07T22:18:19.178Z,0
2016-10-07T22:19:19.759Z,0
2016-10-07T22:20:19.763Z,0
2016-10-07T22:21:19.286Z,0
2016-10-07T22:22:19.342Z,0
2016-10-07T22:23:19.384Z,0
2016-10-07T22:24:19.441Z,0
2016-10-07T22:25:19.538Z,0
2016-10-07T22:26:19.585Z,0
2016-10-07T22:27:19.586Z,0
2016-10-07T22:28:19.646Z,0
2016-10-07T22:29:19.715Z,0
2016-10-07T22:30:19.752Z,0
2016-10-07T22:31:19.842Z,0
2016-10-07T22:32:19.870Z,0
2016-10-07T22:33:19.929Z,0
2016-10-07T22:34:19.925Z,0
2016-10-07T22:35:20.013Z,0
2016-10-07T22:36:20.080Z,0
2016-10-07T22:37:20.123Z,0
2016-10-07T22:38:20.197Z,0
2016-10-07T22:39:20.229Z,0
2016-10-07T22:40:20.817Z,0
2016-10-07T22:41:20.322Z,0
2016-10-07T22:42:20.343Z,0
2016-10-07T22:43:20.932Z,0
2016-10-07T22:44:21.020Z,0
2016-10-07T22:45:20.531Z,0
2016-10-07T22:46:20.632Z,0
2016-10-07T22:47:20.653Z,0
2016-10-07T22:48:20.729Z,0
2016-10-07T22:49:21.243Z,0
2016-10-07T22:50:20.778Z,0
2016-10-07T22:51:20.860Z,0
2016-10-07T22:52:20.910Z,0
2016-10-07T22:53:20.957Z,0
2016-10-07T22:54:21.529Z,0
2016-10-07T22:55:21.025Z,0
2016-10-07T22:56:21.061Z,0
2016-10-07T22:57:21.156Z,0
2016-10-07T22:58:21.193Z,0
2016-10-07T22:59:21.228Z,0
2016-10-07T23:00:21.278Z,0
2016-10-07T23:01:21.365Z,0
2016-10-07T23:02:21.400Z,0
2016-10-07T23:03:21.421Z,0
2016-10-07T23:04:21.499Z,0
2016-10-07T23:05:21.561Z,0
2016-10-07T23:06:21.638Z,0
2016-10-07T23:07:21.627Z,0
2016-10-07T23:08:21.710Z,0
2016-10-07T23:09:21.782Z,0
2016-10-07T23:10:21.824Z,0
2016-10-07T23:11:21.832Z,0
2016-10-07T23:12:21.937Z,0
2016-10-07T23:13:21.953Z,0
2016-10-07T23:14:21.988Z,0
2016-10-07T23:15:22.091Z,0
2016-10-07T23:16:22.161Z,0
2016-10-07T23:17:22.153Z,0
2016-10-07T23:18:22.228Z,0
2016-10-07T23:19:22.250Z,0
2016-10-07T23:20:22.843Z,0
2016-10-07T23:21:22.382Z,0
2016-10-07T23:22:22.424Z,0
2016-10-07T23:23:22.507Z,0
2016-10-07T23:24:22.539Z,0
2016-10-07T23:25:22.624Z,0
2016-10-07T23:26:22.618Z,0
2016-10-07T23:27:22.739Z,0
2016-10-07T23:28:22.742Z,0
2016-10-07T23:29:22.791Z,0
2016-10-07T23:30:22.874Z,0
2016-10-07T23:31:22.854Z,0
2016-10-07T23:32:23.490Z,0
2016-10-07T23:33:23.513Z,0
2016-10-07T23:34:23.548Z,0
2016-10-07T23:35:23.058Z,0
2016-10-07T23:36:23.169Z,0
2016-10-07T23:37:23.207Z,0
2016-10-07T23:38:23.780Z,0
2016-10-07T23:39:23.314Z,0
2016-10-07T23:40:23.395Z,0
2016-10-07T23:41:23.412Z,0
2016-10-07T23:42:23.486Z,0
2016-10-07T23:43:23.527Z,0
2016-10-07T23:44:23.553Z,0
2016-10-07T23:45:23.624Z,0
2016-10-07T23:46:23.718Z,0
2016-10-07T23:47:23.727Z,0
2016-10-07T23:48:23.787Z,0
2016-10-07T23:49:23.841Z,0
2016-10-07T23:50:23.889Z,0
2016-10-07T23:51:24.495Z,0
2016-10-07T23:52:23.989Z,0
2016-10-07T23:53:24.556Z,0
2016-10-07T23:54:24.111Z,0
2016-10-07T23:55:24.101Z,0
2016-10-07T23:56:24.677Z,0
2016-10-07T23:57:24.250Z,0
2016-10-07T23:58:24.312Z,0
2016-10-07T23:59:24.337Z,0
